createdAt,value
2022-08-04T00:02:03.457Z,48.45
2022-08-04T00:04:45.523Z,48.45
2022-08-04T00:07:54.960Z,48.47
2022-08-04T00:10:23.501Z,48.74
2022-08-04T00:15:48.596Z,48.96
2022-08-04T00:21:26.172Z,49.57
2022-08-04T00:50:07.270Z,49.30
2022-08-04T00:52:51.433Z,49.49
2022-08-04T00:55:42.958Z,49.85
2022-08-04T01:08:44.745Z,50.61
2022-08-04T01:11:57.421Z,50.95
2022-08-04T01:15:04.118Z,50.96
2022-08-04T01:18:38.096Z,51.45
2022-08-04T01:22:01.313Z,51.35
2022-08-04T01:25:04.918Z,51.31
2022-08-04T01:27:59.561Z,51.22
2022-08-04T01:30:33.915Z,51.07
2022-08-04T01:33:28.740Z,51.62
2022-08-04T01:36:17.341Z,51.83
2022-08-04T01:38:54.145Z,52.01
2022-08-04T01:41:32.529Z,52.37
2022-08-04T01:44:07.072Z,52.16
2022-08-04T01:46:40.512Z,52.35
2022-08-04T01:49:44.224Z,52.21
2022-08-04T01:55:54.190Z,50.76
2022-08-04T01:58:28.414Z,51.11
2022-08-04T02:01:12.705Z,51.78
2022-08-04T02:04:19.703Z,51.78
2022-08-04T02:10:05.583Z,52.25
2022-08-04T02:12:48.606Z,51.99
2022-08-04T02:15:30.932Z,52.27
2022-08-04T02:18:05.562Z,52.59
2022-08-04T02:20:47.123Z,52.53
2022-08-04T02:23:38.091Z,52.55
2022-08-04T02:26:19.315Z,53.15
2022-08-04T02:29:11.430Z,54.02
2022-08-04T02:31:49.609Z,54.31
2022-08-04T02:34:37.686Z,54.25
2022-08-04T02:37:18.618Z,54.70
2022-08-04T02:42:20.655Z,54.29
2022-08-04T02:44:59.873Z,54.56
2022-08-04T02:48:19.385Z,54.42
2022-08-04T02:50:28.954Z,54.76
2022-08-04T02:53:11.626Z,54.21
2022-08-04T02:55:50.931Z,53.58
2022-08-04T02:58:26.556Z,54.16
2022-08-04T03:00:55.730Z,54.24
2022-08-04T03:03:45.053Z,54.88
2022-08-04T03:06:34.133Z,54.95
2022-08-04T03:09:29.664Z,55.47
2022-08-04T03:12:02.367Z,55.61
2022-08-04T03:14:53.087Z,55.40
2022-08-04T03:17:31.553Z,55.53
2022-08-04T03:20:23.322Z,55.70
2022-08-04T03:23:13.533Z,55.63
2022-08-04T03:26:09.926Z,53.71
2022-08-04T03:28:46.947Z,53.76
2022-08-04T03:31:35.302Z,54.05
2022-08-04T03:34:35.701Z,55.02
2022-08-04T03:37:40.149Z,55.21
2022-08-04T03:40:22.095Z,55.75
2022-08-04T03:43:04.212Z,56.46
2022-08-04T03:46:17.829Z,55.91
2022-08-04T03:49:02.792Z,55.27
2022-08-04T03:52:07.244Z,54.87
2022-08-04T03:55:23.062Z,55.44
2022-08-04T03:58:18.178Z,55.77
2022-08-04T04:01:20.787Z,56.09
2022-08-04T04:04:22.076Z,57.43
2022-08-04T04:07:36.365Z,58.04
2022-08-04T04:10:33.126Z,59.85
2022-08-04T04:13:31.046Z,60.92
2022-08-04T04:16:35.739Z,61.00
2022-08-04T04:19:15.891Z,61.91
2022-08-04T04:22:26.460Z,62.05
2022-08-04T04:25:05.361Z,61.09
2022-08-04T04:27:43.017Z,59.33
2022-08-04T04:30:24.571Z,58.34
2022-08-04T04:33:13.742Z,57.38
2022-08-04T04:36:01.047Z,57.68
2022-08-04T04:39:10.988Z,57.77
2022-08-04T04:42:13.110Z,57.96
2022-08-04T04:44:51.519Z,58.45
2022-08-04T04:48:09.090Z,59.23
2022-08-04T04:50:58.556Z,59.36
2022-08-04T04:54:03.729Z,58.95
2022-08-04T04:56:53.717Z,57.63
2022-08-04T04:59:27.768Z,57.07
2022-08-04T05:02:12.890Z,56.58
2022-08-04T05:05:18.013Z,55.88
2022-08-04T05:08:45.118Z,55.54
2022-08-04T05:11:46.586Z,54.93
2022-08-04T05:14:45.053Z,54.29
2022-08-04T05:17:27.197Z,53.25
2022-08-04T05:20:08.126Z,52.97
2022-08-04T05:22:56.993Z,53.38
2022-08-04T05:25:26.684Z,52.99
2022-08-04T05:28:03.787Z,52.20
2022-08-04T05:30:35.240Z,52.85
2022-08-04T05:33:11.193Z,53.48
2022-08-04T05:36:16.514Z,52.78
2022-08-04T05:38:37.937Z,52.76
2022-08-04T05:41:09.423Z,53.23
2022-08-04T05:43:41.745Z,53.20
2022-08-04T05:46:10.303Z,53.15
2022-08-04T05:48:42.682Z,52.75
2022-08-04T05:51:11.359Z,51.84
2022-08-04T05:53:39.096Z,51.39
2022-08-04T05:56:07.722Z,51.36
2022-08-04T05:58:35.868Z,50.73
2022-08-04T06:01:04.092Z,50.50
2022-08-04T06:03:32.584Z,49.44
2022-08-04T06:06:00.061Z,49.14
2022-08-04T06:08:26.955Z,49.20
2022-08-04T06:10:57.303Z,48.85
2022-08-04T06:13:49.076Z,48.88
2022-08-04T06:16:29.795Z,48.52
2022-08-04T06:20:00.492Z,47.47
2022-08-04T06:21:55.326Z,47.65
2022-08-04T06:24:24.980Z,48.10
2022-08-04T06:26:55.543Z,48.35
2022-08-04T06:29:41.262Z,47.19
2022-08-04T06:32:33.619Z,47.67
2022-08-04T06:35:07.798Z,47.89
2022-08-04T06:37:42.284Z,48.47
2022-08-04T06:40:31.205Z,48.38
2022-08-04T06:43:06.393Z,47.11
2022-08-04T06:45:36.422Z,46.45
2022-08-04T06:48:06.501Z,45.69
2022-08-04T06:51:27.048Z,45.39
2022-08-04T06:53:24.185Z,44.61
2022-08-04T06:55:52.257Z,44.25
2022-08-04T06:58:23.478Z,43.54
2022-08-04T07:00:52.085Z,43.54
2022-08-04T07:03:22.292Z,43.45
2022-08-04T07:05:51.298Z,43.63
2022-08-04T07:08:18.619Z,43.55
2022-08-04T07:10:46.349Z,43.47
2022-08-04T07:13:13.494Z,43.54
2022-08-04T07:15:45.527Z,43.74
2022-08-04T07:18:12.488Z,42.43
2022-08-04T07:20:43.912Z,42.06
2022-08-04T07:23:13.713Z,40.55
2022-08-04T07:25:59.628Z,40.69
2022-08-04T07:28:30.509Z,40.13
2022-08-04T07:30:58.355Z,39.49
2022-08-04T07:33:26.225Z,38.00
2022-08-04T07:36:04.449Z,37.40
2022-08-04T07:38:37.319Z,37.37
2022-08-04T07:41:35.504Z,35.82
2022-08-04T07:43:54.873Z,35.48
2022-08-04T07:46:21.775Z,35.67
2022-08-04T07:48:48.793Z,35.09
2022-08-04T07:51:16.995Z,34.88
2022-08-04T07:53:54.064Z,35.35
2022-08-04T07:56:22.395Z,34.24
2022-08-04T07:58:49.845Z,32.72
2022-08-04T08:01:17.393Z,33.10
2022-08-04T08:03:44.316Z,32.63
2022-08-04T08:06:31.439Z,33.14
2022-08-04T08:09:12.160Z,33.81
2022-08-04T08:12:35.441Z,33.66
2022-08-04T08:14:36.332Z,33.87
2022-08-04T08:17:04.519Z,31.79
2022-08-04T08:19:32.418Z,32.21
2022-08-04T08:22:01.189Z,32.24
2022-08-04T08:24:34.872Z,31.96
2022-08-04T08:27:04.453Z,32.29
2022-08-04T08:29:33.929Z,30.92
2022-08-04T08:32:07.746Z,31.25
2022-08-04T08:34:40.534Z,30.80
2022-08-04T08:37:19.294Z,30.51
2022-08-04T08:39:53.053Z,29.76
2022-08-04T08:42:54.935Z,30.17
2022-08-04T08:45:58.423Z,31.51
2022-08-04T08:49:02.567Z,31.23
2022-08-04T08:51:47.589Z,31.85
2022-08-04T08:54:32.597Z,31.25
2022-08-04T08:57:23.932Z,32.36
2022-08-04T09:00:16.963Z,32.07
2022-08-04T09:03:24.831Z,31.18
2022-08-04T09:06:03.279Z,31.63
2022-08-04T09:09:01.226Z,31.84
2022-08-04T09:11:41.994Z,30.43
2022-08-04T09:14:26.054Z,30.76
2022-08-04T09:16:57.150Z,29.36
2022-08-04T09:19:38.890Z,26.24
2022-08-04T09:22:13.095Z,26.49
2022-08-04T09:25:01.186Z,27.00
2022-08-04T09:27:55.658Z,26.21
2022-08-04T09:30:31.937Z,26.07
2022-08-04T09:33:22.862Z,26.81
2022-08-04T09:36:13.663Z,25.67
2022-08-04T09:39:03.315Z,25.01
2022-08-04T09:41:52.475Z,23.91
2022-08-04T09:44:49.270Z,21.29
2022-08-04T09:47:23.497Z,21.05
2022-08-04T09:49:59.105Z,20.25
2022-08-04T09:52:30.344Z,20.72
2022-08-04T09:55:09.142Z,22.18
2022-08-04T09:57:53.533Z,21.80
2022-08-04T10:00:40.291Z,23.23
2022-08-04T10:03:19.696Z,24.00
2022-08-04T10:06:09.830Z,25.14
2022-08-04T10:09:07.066Z,23.97
2022-08-04T10:11:55.854Z,25.89
2022-08-04T10:14:44.951Z,24.78
2022-08-04T10:17:28.734Z,23.75
2022-08-04T10:20:36.503Z,23.99
2022-08-04T10:23:13.059Z,23.23
2022-08-04T10:26:08.599Z,24.17
2022-08-04T10:28:52.526Z,24.35
2022-08-04T10:31:30.486Z,24.88
2022-08-04T10:34:10.244Z,24.49
2022-08-04T10:36:47.647Z,25.33
2022-08-04T10:39:43.644Z,25.63
2022-08-04T10:42:27.481Z,26.63
2022-08-04T10:45:16.667Z,27.01
2022-08-04T10:48:07.055Z,26.63
2022-08-04T10:50:42.914Z,27.30
2022-08-04T10:53:22.357Z,28.06
2022-08-04T10:56:18.269Z,27.81
2022-08-04T10:59:04.611Z,28.22
2022-08-04T11:01:50.734Z,28.89
2022-08-04T11:04:46.852Z,29.20
2022-08-04T11:07:14.762Z,27.81
2022-08-04T11:09:44.157Z,27.70
2022-08-04T11:12:17.787Z,26.76
2022-08-04T11:14:54.863Z,27.05
2022-08-04T11:17:27.019Z,26.76
2022-08-04T11:20:34.141Z,27.79
2022-08-04T11:23:01.121Z,27.55
2022-08-04T11:25:33.780Z,26.30
2022-08-04T11:28:16.208Z,23.28
2022-08-04T11:31:26.908Z,21.18
2022-08-04T11:34:10.577Z,20.36
2022-08-04T11:36:54.963Z,18.47
2022-08-04T11:39:29.867Z,19.12
2022-08-04T11:42:28.985Z,20.78
2022-08-04T11:45:04.568Z,19.73
2022-08-04T11:47:33.640Z,19.44
2022-08-04T11:50:08.832Z,20.56
2022-08-04T11:52:39.920Z,21.07
2022-08-04T11:55:11.409Z,18.89
2022-08-04T11:57:39.002Z,19.40
2022-08-04T12:00:12.827Z,18.82
2022-08-04T12:02:51.379Z,20.28
2022-08-04T12:05:36.504Z,20.74
2022-08-04T12:08:35.164Z,17.36
2022-08-04T12:11:01.802Z,18.26
2022-08-04T12:13:33.141Z,19.00
2022-08-04T12:16:03.629Z,17.68
2022-08-04T12:18:39.894Z,18.17
2022-08-04T12:21:23.624Z,19.03
2022-08-04T12:24:00.617Z,18.96
2022-08-04T12:26:30.969Z,19.89
2022-08-04T12:29:10.817Z,20.25
2022-08-04T12:31:58.324Z,19.13
2022-08-04T12:34:51.667Z,19.29
2022-08-04T12:37:41.430Z,19.83
2022-08-04T12:40:27.528Z,19.53
2022-08-04T12:43:07.505Z,19.71
2022-08-04T12:45:34.992Z,18.48
2022-08-04T12:48:06.416Z,17.15
2022-08-04T12:50:33.794Z,16.90
2022-08-04T12:53:02.987Z,17.01
2022-08-04T12:55:37.354Z,16.07
2022-08-04T12:58:13.573Z,15.87
2022-08-04T13:00:44.491Z,16.06
2022-08-04T13:03:15.658Z,15.73
2022-08-04T13:05:45.045Z,15.52
2022-08-04T13:08:13.371Z,15.37
2022-08-04T13:10:42.796Z,16.84
2022-08-04T13:13:23.860Z,18.94
2022-08-04T13:16:14.754Z,18.87
2022-08-04T13:18:49.031Z,19.20
2022-08-04T13:21:21.386Z,20.13
2022-08-04T13:24:20.561Z,20.77
2022-08-04T13:26:58.398Z,21.11
2022-08-04T13:29:59.660Z,20.14
2022-08-04T13:32:29.782Z,20.43
2022-08-04T13:34:59.937Z,20.12
2022-08-04T13:37:32.444Z,20.28
2022-08-04T13:40:00.575Z,19.98
2022-08-04T13:42:28.401Z,20.32
2022-08-04T13:44:58.470Z,19.17
2022-08-04T13:47:53.209Z,18.97
2022-08-04T13:50:23.387Z,18.47
2022-08-04T13:52:53.414Z,17.27
2022-08-04T13:55:30.497Z,17.22
2022-08-04T13:58:23.403Z,16.77
2022-08-04T14:01:07.603Z,17.52
2022-08-04T14:03:54.018Z,16.71
2022-08-04T14:06:48.550Z,16.78
2022-08-04T14:09:17.928Z,16.27
2022-08-04T14:12:09.681Z,15.97
2022-08-04T14:14:53.374Z,18.63
2022-08-04T14:17:30.811Z,17.84
2022-08-04T14:20:01.380Z,18.51
2022-08-04T14:22:30.829Z,17.55
2022-08-04T14:25:04.509Z,17.80
2022-08-04T14:27:54.588Z,17.82
2022-08-04T14:30:23.965Z,18.06
2022-08-04T14:34:02.283Z,16.75
2022-08-04T14:36:01.471Z,17.33
2022-08-04T14:38:45.390Z,18.35
2022-08-04T14:41:13.160Z,17.92
2022-08-04T14:43:47.289Z,17.43
2022-08-04T14:46:14.390Z,17.16
2022-08-04T14:49:02.313Z,16.97
2022-08-04T14:51:36.727Z,18.00
2022-08-04T14:54:08.228Z,19.63
2022-08-04T14:56:46.763Z,20.20
2022-08-04T14:59:15.021Z,19.78
2022-08-04T15:01:43.524Z,18.89
2022-08-04T15:04:11.497Z,19.12
2022-08-04T15:06:38.362Z,20.12
2022-08-04T15:09:08.866Z,20.33
2022-08-04T15:11:41.517Z,21.78
2022-08-04T15:14:35.945Z,22.55
2022-08-04T15:16:57.225Z,23.22
2022-08-04T15:19:24.495Z,23.73
2022-08-04T15:21:55.037Z,22.98
2022-08-04T15:24:27.383Z,21.86
2022-08-04T15:26:57.801Z,22.37
2022-08-04T15:30:00.247Z,23.06
2022-08-04T15:32:30.911Z,23.94
2022-08-04T15:35:03.888Z,24.32
2022-08-04T15:37:36.977Z,24.69
2022-08-04T15:40:12.539Z,24.76
2022-08-04T15:42:41.584Z,24.58
2022-08-04T15:46:37.144Z,24.87
2022-08-04T15:48:11.637Z,24.21
2022-08-04T15:50:58.545Z,24.31
2022-08-04T15:53:36.518Z,24.42
2022-08-04T15:56:26.343Z,24.29
2022-08-04T15:58:57.310Z,24.53
2022-08-04T16:01:24.353Z,24.69
2022-08-04T16:04:00.974Z,25.07
2022-08-04T16:06:29.205Z,25.42
2022-08-04T16:09:01.739Z,25.12
2022-08-04T16:11:37.234Z,24.76
2022-08-04T16:14:04.041Z,24.66
2022-08-04T16:16:36.548Z,25.21
2022-08-04T16:19:08.363Z,24.82
2022-08-04T16:21:47.189Z,25.35
2022-08-04T16:24:29.267Z,25.73
2022-08-04T16:26:58.055Z,26.22
2022-08-04T16:29:32.387Z,26.24
2022-08-04T16:32:05.085Z,26.11
2022-08-04T16:34:48.062Z,26.68
2022-08-04T16:37:18.296Z,26.56
2022-08-04T16:39:49.949Z,27.42
2022-08-04T16:42:29.952Z,27.67
2022-08-04T16:45:11.659Z,29.19
2022-08-04T16:47:47.217Z,30.07
2022-08-04T16:50:17.455Z,30.60
2022-08-04T16:52:48.393Z,31.75
2022-08-04T16:55:16.321Z,33.36
2022-08-04T16:57:46.756Z,32.83
2022-08-04T17:00:14.748Z,33.69
2022-08-04T17:02:42.865Z,34.95
2022-08-04T17:05:37.966Z,39.47
2022-08-04T17:08:28.623Z,51.09
2022-08-04T17:10:53.745Z,55.40
2022-08-04T17:14:00.879Z,63.55
2022-08-04T17:16:22.574Z,65.57
2022-08-04T17:18:51.824Z,68.67
2022-08-04T17:21:23.394Z,70.97
2022-08-04T17:24:14.020Z,72.53
2022-08-04T17:26:51.939Z,75.14
2022-08-04T17:29:43.622Z,81.05
2022-08-04T17:32:22.144Z,80.98
2022-08-04T17:34:51.383Z,77.73
2022-08-04T17:37:38.071Z,73.78
2022-08-04T17:40:17.979Z,74.66
2022-08-04T17:42:45.768Z,80.06
2022-08-04T17:45:51.391Z,80.53
2022-08-04T17:48:24.571Z,82.32
2022-08-04T17:50:51.883Z,80.87
2022-08-04T17:53:53.033Z,83.60
2022-08-04T17:56:36.334Z,79.60
2022-08-04T17:59:55.760Z,80.57
2022-08-04T18:02:10.500Z,78.53
2022-08-04T18:05:07.564Z,75.46
2022-08-04T18:08:38.068Z,74.25
2022-08-04T18:13:42.703Z,74.17
2022-08-04T18:16:22.097Z,74.05
2022-08-04T18:19:11.601Z,74.06
2022-08-04T18:21:46.834Z,73.14
2022-08-04T18:24:34.243Z,72.30
2022-08-04T18:27:14.559Z,71.20
2022-08-04T18:29:41.467Z,70.60
2022-08-04T18:32:33.035Z,69.66
2022-08-04T18:35:05.530Z,69.62
2022-08-04T18:38:05.207Z,71.30
2022-08-04T18:40:26.727Z,73.33
2022-08-04T18:42:58.308Z,72.92
2022-08-04T18:45:34.183Z,71.56
2022-08-04T18:48:02.215Z,71.01
2022-08-04T18:50:40.056Z,71.43
2022-08-04T18:53:17.655Z,73.79
2022-08-04T18:55:56.997Z,76.29
2022-08-04T18:58:27.399Z,77.39
2022-08-04T19:00:55.878Z,73.67
2022-08-04T19:03:23.492Z,76.22
2022-08-04T19:05:53.687Z,78.06
2022-08-04T19:08:33.183Z,74.75
2022-08-04T19:11:37.462Z,74.49
2022-08-04T19:13:58.090Z,76.39
2022-08-04T19:16:28.660Z,77.96
2022-08-04T19:18:56.563Z,78.34
2022-08-04T19:22:00.874Z,71.77
2022-08-04T19:24:33.039Z,75.65
2022-08-04T19:26:59.057Z,76.72
2022-08-04T19:29:25.653Z,77.69
2022-08-04T19:32:05.230Z,78.38
2022-08-04T19:34:45.617Z,79.51
2022-08-04T19:37:15.347Z,80.72
2022-08-04T19:39:46.829Z,79.99
2022-08-04T19:42:14.678Z,75.58
2022-08-04T19:44:43.798Z,74.16
2022-08-04T19:48:16.688Z,72.20
2022-08-04T19:50:03.210Z,71.69
2022-08-04T19:52:34.205Z,71.43
2022-08-04T19:55:09.827Z,72.01
2022-08-04T19:57:46.487Z,71.88
2022-08-04T20:00:17.973Z,70.93
2022-08-04T20:03:01.199Z,71.20
2022-08-04T20:05:52.675Z,72.03
2022-08-04T20:08:15.381Z,71.47
2022-08-04T20:10:51.440Z,70.50
2022-08-04T20:13:18.550Z,71.18
2022-08-04T20:15:57.586Z,74.82
2022-08-04T20:18:35.734Z,76.25
2022-08-04T20:21:03.973Z,74.93
2022-08-04T20:23:48.183Z,74.25
2022-08-04T20:26:15.449Z,76.42
2022-08-04T20:28:42.291Z,76.62
2022-08-04T20:31:18.398Z,77.27
2022-08-04T20:33:49.279Z,78.50
2022-08-04T20:36:21.630Z,78.32
2022-08-04T20:38:54.651Z,79.07
2022-08-04T20:41:22.055Z,78.66
2022-08-04T20:43:50.056Z,77.98
2022-08-04T20:46:29.268Z,76.67
2022-08-04T20:48:57.775Z,78.26
2022-08-04T20:51:32.042Z,78.05
2022-08-04T20:54:00.944Z,76.72
2022-08-04T20:56:31.066Z,78.59
2022-08-04T20:58:59.832Z,80.34
2022-08-04T21:01:30.172Z,82.38
2022-08-04T21:04:27.124Z,83.48
2022-08-04T21:06:55.587Z,83.53
2022-08-04T21:09:36.987Z,83.72
2022-08-04T21:12:04.860Z,82.93
2022-08-04T21:14:31.503Z,81.86
2022-08-04T21:16:59.741Z,82.32
2022-08-04T21:19:28.024Z,82.58
2022-08-04T21:21:54.843Z,83.03
2022-08-04T21:24:26.135Z,83.71
2022-08-04T21:26:56.686Z,83.05
2022-08-04T21:29:29.570Z,83.26
2022-08-04T21:32:07.753Z,82.47
2022-08-04T21:34:39.446Z,80.38
2022-08-04T21:37:10.497Z,78.08
2022-08-04T21:39:59.118Z,78.39
2022-08-04T21:42:29.800Z,79.38
2022-08-04T21:44:58.234Z,78.04
2022-08-04T21:47:24.952Z,76.97
2022-08-04T21:49:56.239Z,76.83
2022-08-04T21:52:24.587Z,76.48
2022-08-04T21:54:54.988Z,76.05
2022-08-04T21:57:22.794Z,76.56
2022-08-04T21:59:52.714Z,77.22
2022-08-04T22:02:22.112Z,77.85
2022-08-04T22:04:51.953Z,78.79
2022-08-04T22:07:23.162Z,78.16
2022-08-04T22:10:02.263Z,79.06
2022-08-04T22:12:30.794Z,79.86
2022-08-04T22:15:00.516Z,81.43
2022-08-04T22:17:35.393Z,81.89
2022-08-04T22:20:02.573Z,82.70
2022-08-04T22:30:36.821Z,83.76
2022-08-04T22:33:07.496Z,82.58
2022-08-04T22:35:43.765Z,82.84
2022-08-04T22:38:28.032Z,82.91
2022-08-04T22:41:10.059Z,83.48
2022-08-04T22:43:38.080Z,84.41
2022-08-04T22:48:53.257Z,84.48
2022-08-04T22:51:24.133Z,83.90
2022-08-04T22:53:54.054Z,84.21
2022-08-04T22:56:38.145Z,82.91
2022-08-04T22:59:06.687Z,80.92
2022-08-04T23:02:00.702Z,79.72
2022-08-04T23:04:23.748Z,80.50
2022-08-04T23:06:54.777Z,81.29
2022-08-04T23:09:49.395Z,83.36
2022-08-04T23:12:27.812Z,83.57
2022-08-04T23:14:55.943Z,84.92
2022-08-04T23:17:23.313Z,85.04
2022-08-04T23:19:57.694Z,83.10
2022-08-04T23:22:41.021Z,83.38
2022-08-04T23:25:15.863Z,84.12
2022-08-04T23:27:50.487Z,84.18
2022-08-04T23:30:21.727Z,84.17
2022-08-04T23:32:52.593Z,84.34
2022-08-04T23:35:22.126Z,84.48
2022-08-04T23:37:57.713Z,84.12
2022-08-04T23:40:34.053Z,84.12
2022-08-04T23:43:16.860Z,84.75
2022-08-04T23:46:07.732Z,85.60
2022-08-04T23:48:36.069Z,86.09
2022-08-04T23:51:15.593Z,87.56
2022-08-04T23:54:03.363Z,87.60
2022-08-04T23:56:31.839Z,86.88
2022-08-04T23:59:00.042Z,87.17
